sensor_id;sensor_type;location;lat;lon;timestamp;P1;durP1;ratioP1;P2;durP2;ratioP2
17235;SDS011;8734;59.272;17.780;2022-12-11T00:01:11;13.17;;;5.77;;
17235;SDS011;8734;59.272;17.780;2022-12-11T00:03:42;14.50;;;5.77;;
17235;SDS011;8734;59.272;17.780;2022-12-11T00:06:12;12.97;;;6.20;;
17235;SDS011;8734;59.272;17.780;2022-12-11T00:08:43;12.60;;;6.37;;
17235;SDS011;8734;59.272;17.780;2022-12-11T00:11:13;22.40;;;6.93;;
17235;SDS011;8734;59.272;17.780;2022-12-11T00:13:42;17.77;;;6.77;;
17235;SDS011;8734;59.272;17.780;2022-12-11T00:16:11;15.73;;;7.17;;
17235;SDS011;8734;59.272;17.780;2022-12-11T00:18:39;20.33;;;7.43;;
17235;SDS011;8734;59.272;17.780;2022-12-11T00:21:10;14.53;;;6.07;;
17235;SDS011;8734;59.272;17.780;2022-12-11T00:23:40;14.07;;;6.67;;
17235;SDS011;8734;59.272;17.780;2022-12-11T00:26:11;15.57;;;7.97;;
17235;SDS011;8734;59.272;17.780;2022-12-11T00:28:41;13.07;;;6.70;;
17235;SDS011;8734;59.272;17.780;2022-12-11T00:31:12;15.77;;;6.97;;
17235;SDS011;8734;59.272;17.780;2022-12-11T00:33:41;16.90;;;6.13;;
17235;SDS011;8734;59.272;17.780;2022-12-11T00:36:11;14.97;;;6.63;;
17235;SDS011;8734;59.272;17.780;2022-12-11T00:38:40;14.10;;;5.77;;
17235;SDS011;8734;59.272;17.780;2022-12-11T00:41:10;17.27;;;6.67;;
17235;SDS011;8734;59.272;17.780;2022-12-11T00:43:39;16.03;;;6.23;;
17235;SDS011;8734;59.272;17.780;2022-12-11T00:46:07;20.73;;;6.10;;
17235;SDS011;8734;59.272;17.780;2022-12-11T00:48:36;20.93;;;7.53;;
17235;SDS011;8734;59.272;17.780;2022-12-11T00:51:05;14.10;;;6.80;;
17235;SDS011;8734;59.272;17.780;2022-12-11T00:53:33;19.13;;;6.40;;
17235;SDS011;8734;59.272;17.780;2022-12-11T00:56:09;15.93;;;6.93;;
17235;SDS011;8734;59.272;17.780;2022-12-11T00:58:39;21.37;;;7.50;;
17235;SDS011;8734;59.272;17.780;2022-12-11T01:01:07;23.77;;;7.50;;
17235;SDS011;8734;59.272;17.780;2022-12-11T01:03:36;21.33;;;7.63;;
17235;SDS011;8734;59.272;17.780;2022-12-11T01:06:06;23.17;;;7.73;;
17235;SDS011;8734;59.272;17.780;2022-12-11T01:08:34;21.67;;;8.37;;
17235;SDS011;8734;59.272;17.780;2022-12-11T01:11:05;18.40;;;7.80;;
17235;SDS011;8734;59.272;17.780;2022-12-11T01:13:35;18.23;;;7.73;;
17235;SDS011;8734;59.272;17.780;2022-12-11T01:16:05;17.13;;;8.23;;
17235;SDS011;8734;59.272;17.780;2022-12-11T01:18:35;18.33;;;9.00;;
17235;SDS011;8734;59.272;17.780;2022-12-11T01:21:04;20.77;;;9.47;;
17235;SDS011;8734;59.272;17.780;2022-12-11T01:23:33;22.17;;;8.73;;
17235;SDS011;8734;59.272;17.780;2022-12-11T01:26:06;20.30;;;6.93;;
17235;SDS011;8734;59.272;17.780;2022-12-11T01:28:36;18.50;;;8.07;;
17235;SDS011;8734;59.272;17.780;2022-12-11T01:31:06;17.23;;;7.40;;
17235;SDS011;8734;59.272;17.780;2022-12-11T01:33:35;18.67;;;7.63;;
17235;SDS011;8734;59.272;17.780;2022-12-11T01:36:05;15.10;;;6.80;;
17235;SDS011;8734;59.272;17.780;2022-12-11T01:38:36;23.47;;;6.03;;
17235;SDS011;8734;59.272;17.780;2022-12-11T01:41:04;19.27;;;6.63;;
17235;SDS011;8734;59.272;17.780;2022-12-11T01:43:33;20.17;;;8.67;;
17235;SDS011;8734;59.272;17.780;2022-12-11T01:46:04;16.60;;;6.50;;
17235;SDS011;8734;59.272;17.780;2022-12-11T01:48:33;18.60;;;7.73;;
17235;SDS011;8734;59.272;17.780;2022-12-11T01:51:07;21.70;;;7.80;;
17235;SDS011;8734;59.272;17.780;2022-12-11T01:53:37;20.17;;;8.17;;
17235;SDS011;8734;59.272;17.780;2022-12-11T01:56:07;16.17;;;7.40;;
17235;SDS011;8734;59.272;17.780;2022-12-11T01:58:37;9.17;;;4.53;;
17235;SDS011;8734;59.272;17.780;2022-12-11T02:01:11;12.37;;;5.43;;
17235;SDS011;8734;59.272;17.780;2022-12-11T02:03:45;14.23;;;5.93;;
17235;SDS011;8734;59.272;17.780;2022-12-11T02:06:30;11.00;;;5.50;;
17235;SDS011;8734;59.272;17.780;2022-12-11T02:09:01;11.23;;;5.23;;
17235;SDS011;8734;59.272;17.780;2022-12-11T02:11:33;11.63;;;5.23;;
17235;SDS011;8734;59.272;17.780;2022-12-11T02:14:11;12.60;;;5.80;;
17235;SDS011;8734;59.272;17.780;2022-12-11T02:16:49;12.97;;;5.63;;
17235;SDS011;8734;59.272;17.780;2022-12-11T02:19:30;11.33;;;6.60;;
17235;SDS011;8734;59.272;17.780;2022-12-11T02:22:12;22.20;;;5.53;;
17235;SDS011;8734;59.272;17.780;2022-12-11T02:24:51;14.40;;;6.33;;
17235;SDS011;8734;59.272;17.780;2022-12-11T02:27:32;13.87;;;4.80;;
17235;SDS011;8734;59.272;17.780;2022-12-11T02:30:09;10.97;;;4.87;;
17235;SDS011;8734;59.272;17.780;2022-12-11T02:32:41;9.93;;;5.40;;
17235;SDS011;8734;59.272;17.780;2022-12-11T02:35:14;11.53;;;5.00;;
17235;SDS011;8734;59.272;17.780;2022-12-11T02:37:47;7.77;;;4.33;;
17235;SDS011;8734;59.272;17.780;2022-12-11T02:40:20;7.50;;;3.90;;
17235;SDS011;8734;59.272;17.780;2022-12-11T02:42:52;20.53;;;5.60;;
17235;SDS011;8734;59.272;17.780;2022-12-11T02:45:24;11.27;;;4.80;;
17235;SDS011;8734;59.272;17.780;2022-12-11T02:47:54;14.13;;;4.20;;
17235;SDS011;8734;59.272;17.780;2022-12-11T02:50:25;14.77;;;6.10;;
17235;SDS011;8734;59.272;17.780;2022-12-11T02:52:55;10.27;;;5.07;;
17235;SDS011;8734;59.272;17.780;2022-12-11T02:55:26;8.27;;;4.00;;
17235;SDS011;8734;59.272;17.780;2022-12-11T02:57:58;11.67;;;4.30;;
17235;SDS011;8734;59.272;17.780;2022-12-11T03:00:33;9.80;;;4.37;;
17235;SDS011;8734;59.272;17.780;2022-12-11T03:03:02;9.77;;;4.63;;
17235;SDS011;8734;59.272;17.780;2022-12-11T03:05:31;10.13;;;4.10;;
17235;SDS011;8734;59.272;17.780;2022-12-11T03:07:59;13.33;;;4.83;;
17235;SDS011;8734;59.272;17.780;2022-12-11T03:10:30;10.10;;;4.67;;
17235;SDS011;8734;59.272;17.780;2022-12-11T03:12:59;10.20;;;5.10;;
17235;SDS011;8734;59.272;17.780;2022-12-11T03:15:30;12.30;;;5.23;;
17235;SDS011;8734;59.272;17.780;2022-12-11T03:18:08;9.60;;;4.23;;
17235;SDS011;8734;59.272;17.780;2022-12-11T03:20:42;11.27;;;4.97;;
17235;SDS011;8734;59.272;17.780;2022-12-11T03:23:16;9.80;;;4.30;;
17235;SDS011;8734;59.272;17.780;2022-12-11T03:25:49;10.70;;;4.53;;
17235;SDS011;8734;59.272;17.780;2022-12-11T03:28:22;9.80;;;4.40;;
17235;SDS011;8734;59.272;17.780;2022-12-11T03:30:57;13.23;;;4.53;;
17235;SDS011;8734;59.272;17.780;2022-12-11T03:33:32;14.87;;;5.37;;
17235;SDS011;8734;59.272;17.780;2022-12-11T03:36:04;14.23;;;4.77;;
17235;SDS011;8734;59.272;17.780;2022-12-11T03:38:39;12.77;;;5.20;;
17235;SDS011;8734;59.272;17.780;2022-12-11T03:41:13;15.33;;;6.17;;
17235;SDS011;8734;59.272;17.780;2022-12-11T03:43:45;17.80;;;5.50;;
17235;SDS011;8734;59.272;17.780;2022-12-11T03:46:18;15.33;;;4.97;;
17235;SDS011;8734;59.272;17.780;2022-12-11T03:48:49;25.77;;;5.70;;
17235;SDS011;8734;59.272;17.780;2022-12-11T03:51:20;13.30;;;5.00;;
17235;SDS011;8734;59.272;17.780;2022-12-11T03:53:49;14.00;;;5.57;;
17235;SDS011;8734;59.272;17.780;2022-12-11T03:56:19;16.33;;;5.23;;
17235;SDS011;8734;59.272;17.780;2022-12-11T03:58:48;7.93;;;4.70;;
17235;SDS011;8734;59.272;17.780;2022-12-11T04:01:18;10.20;;;4.47;;
17235;SDS011;8734;59.272;17.780;2022-12-11T04:03:47;7.77;;;4.13;;
17235;SDS011;8734;59.272;17.780;2022-12-11T04:06:16;8.03;;;4.23;;
17235;SDS011;8734;59.272;17.780;2022-12-11T04:08:44;9.30;;;4.77;;
17235;SDS011;8734;59.272;17.780;2022-12-11T04:11:12;7.07;;;4.33;;
17235;SDS011;8734;59.272;17.780;2022-12-11T04:13:59;6.40;;;3.80;;
17235;SDS011;8734;59.272;17.780;2022-12-11T04:16:51;7.60;;;3.87;;
17235;SDS011;8734;59.272;17.780;2022-12-11T04:19:22;9.57;;;4.30;;
17235;SDS011;8734;59.272;17.780;2022-12-11T04:22:08;11.03;;;4.27;;
17235;SDS011;8734;59.272;17.780;2022-12-11T04:24:54;7.83;;;3.50;;
17235;SDS011;8734;59.272;17.780;2022-12-11T04:27:22;9.30;;;3.63;;
17235;SDS011;8734;59.272;17.780;2022-12-11T04:30:10;6.57;;;3.47;;
17235;SDS011;8734;59.272;17.780;2022-12-11T04:32:41;7.43;;;4.30;;
17235;SDS011;8734;59.272;17.780;2022-12-11T04:35:10;7.57;;;4.47;;
17235;SDS011;8734;59.272;17.780;2022-12-11T04:37:39;10.63;;;4.83;;
17235;SDS011;8734;59.272;17.780;2022-12-11T04:40:09;9.73;;;4.33;;
17235;SDS011;8734;59.272;17.780;2022-12-11T04:42:40;11.37;;;4.80;;
17235;SDS011;8734;59.272;17.780;2022-12-11T04:45:09;9.87;;;4.47;;
17235;SDS011;8734;59.272;17.780;2022-12-11T04:47:38;15.40;;;5.03;;
17235;SDS011;8734;59.272;17.780;2022-12-11T04:50:10;9.67;;;4.37;;
17235;SDS011;8734;59.272;17.780;2022-12-11T04:52:39;18.13;;;6.60;;
17235;SDS011;8734;59.272;17.780;2022-12-11T04:55:09;11.83;;;4.93;;
17235;SDS011;8734;59.272;17.780;2022-12-11T04:57:38;14.97;;;4.80;;
17235;SDS011;8734;59.272;17.780;2022-12-11T05:00:08;11.63;;;5.03;;
17235;SDS011;8734;59.272;17.780;2022-12-11T05:02:38;14.67;;;5.40;;
17235;SDS011;8734;59.272;17.780;2022-12-11T05:05:08;14.90;;;5.93;;
17235;SDS011;8734;59.272;17.780;2022-12-11T05:07:40;9.93;;;4.23;;
17235;SDS011;8734;59.272;17.780;2022-12-11T05:10:09;15.27;;;4.47;;
17235;SDS011;8734;59.272;17.780;2022-12-11T05:12:37;17.73;;;5.37;;
17235;SDS011;8734;59.272;17.780;2022-12-11T05:15:07;15.40;;;4.57;;
17235;SDS011;8734;59.272;17.780;2022-12-11T05:17:36;12.57;;;5.90;;
17235;SDS011;8734;59.272;17.780;2022-12-11T05:20:04;12.23;;;5.40;;
17235;SDS011;8734;59.272;17.780;2022-12-11T05:22:35;17.10;;;5.93;;
17235;SDS011;8734;59.272;17.780;2022-12-11T05:25:04;12.20;;;5.60;;
17235;SDS011;8734;59.272;17.780;2022-12-11T05:27:33;15.60;;;6.33;;
17235;SDS011;8734;59.272;17.780;2022-12-11T05:30:02;17.47;;;5.93;;
17235;SDS011;8734;59.272;17.780;2022-12-11T05:32:31;20.60;;;6.37;;
17235;SDS011;8734;59.272;17.780;2022-12-11T05:34:59;14.20;;;5.37;;
17235;SDS011;8734;59.272;17.780;2022-12-11T05:37:29;12.10;;;6.57;;
17235;SDS011;8734;59.272;17.780;2022-12-11T05:40:01;21.57;;;6.17;;
17235;SDS011;8734;59.272;17.780;2022-12-11T05:42:33;18.10;;;5.60;;
17235;SDS011;8734;59.272;17.780;2022-12-11T05:45:02;18.33;;;6.20;;
17235;SDS011;8734;59.272;17.780;2022-12-11T05:47:31;17.50;;;6.00;;
17235;SDS011;8734;59.272;17.780;2022-12-11T05:50:00;20.50;;;7.67;;
17235;SDS011;8734;59.272;17.780;2022-12-11T05:52:30;15.47;;;6.50;;
17235;SDS011;8734;59.272;17.780;2022-12-11T05:54:58;18.20;;;6.70;;
17235;SDS011;8734;59.272;17.780;2022-12-11T05:57:27;13.20;;;5.87;;
17235;SDS011;8734;59.272;17.780;2022-12-11T05:59:56;20.13;;;6.47;;
17235;SDS011;8734;59.272;17.780;2022-12-11T06:02:24;21.07;;;6.73;;
17235;SDS011;8734;59.272;17.780;2022-12-11T06:04:53;15.33;;;5.30;;
17235;SDS011;8734;59.272;17.780;2022-12-11T06:07:21;17.53;;;5.80;;
17235;SDS011;8734;59.272;17.780;2022-12-11T06:09:49;15.47;;;6.67;;
17235;SDS011;8734;59.272;17.780;2022-12-11T06:12:18;22.63;;;7.03;;
17235;SDS011;8734;59.272;17.780;2022-12-11T06:14:48;15.13;;;6.67;;
17235;SDS011;8734;59.272;17.780;2022-12-11T06:17:16;16.07;;;7.10;;
17235;SDS011;8734;59.272;17.780;2022-12-11T06:19:45;18.03;;;6.60;;
17235;SDS011;8734;59.272;17.780;2022-12-11T06:22:13;21.03;;;7.20;;
17235;SDS011;8734;59.272;17.780;2022-12-11T06:24:41;18.47;;;6.63;;
17235;SDS011;8734;59.272;17.780;2022-12-11T06:27:10;15.27;;;6.40;;
17235;SDS011;8734;59.272;17.780;2022-12-11T06:29:38;14.90;;;6.00;;
17235;SDS011;8734;59.272;17.780;2022-12-11T06:32:08;11.73;;;5.50;;
17235;SDS011;8734;59.272;17.780;2022-12-11T06:34:36;22.87;;;6.80;;
17235;SDS011;8734;59.272;17.780;2022-12-11T06:37:05;12.20;;;5.20;;
17235;SDS011;8734;59.272;17.780;2022-12-11T06:39:33;19.80;;;6.63;;
17235;SDS011;8734;59.272;17.780;2022-12-11T06:42:02;16.63;;;6.80;;
17235;SDS011;8734;59.272;17.780;2022-12-11T06:44:30;13.00;;;6.00;;
17235;SDS011;8734;59.272;17.780;2022-12-11T06:46:59;18.83;;;6.23;;
17235;SDS011;8734;59.272;17.780;2022-12-11T06:49:29;17.57;;;6.27;;
17235;SDS011;8734;59.272;17.780;2022-12-11T06:51:57;15.70;;;5.23;;
17235;SDS011;8734;59.272;17.780;2022-12-11T06:54:25;22.63;;;6.60;;
17235;SDS011;8734;59.272;17.780;2022-12-11T06:56:54;13.47;;;5.97;;
17235;SDS011;8734;59.272;17.780;2022-12-11T06:59:22;11.33;;;5.57;;
17235;SDS011;8734;59.272;17.780;2022-12-11T07:01:52;12.87;;;5.30;;
17235;SDS011;8734;59.272;17.780;2022-12-11T07:04:20;13.70;;;5.10;;
17235;SDS011;8734;59.272;17.780;2022-12-11T07:06:51;16.90;;;6.13;;
17235;SDS011;8734;59.272;17.780;2022-12-11T07:09:20;17.03;;;6.33;;
17235;SDS011;8734;59.272;17.780;2022-12-11T07:11:49;16.97;;;6.50;;
17235;SDS011;8734;59.272;17.780;2022-12-11T07:14:17;16.87;;;6.27;;
17235;SDS011;8734;59.272;17.780;2022-12-11T07:16:46;18.33;;;5.57;;
17235;SDS011;8734;59.272;17.780;2022-12-11T07:19:15;24.07;;;6.60;;
17235;SDS011;8734;59.272;17.780;2022-12-11T07:21:44;14.70;;;6.37;;
17235;SDS011;8734;59.272;17.780;2022-12-11T07:24:14;16.63;;;6.40;;
17235;SDS011;8734;59.272;17.780;2022-12-11T07:26:43;16.83;;;6.13;;
17235;SDS011;8734;59.272;17.780;2022-12-11T07:29:11;19.07;;;5.77;;
17235;SDS011;8734;59.272;17.780;2022-12-11T07:31:40;18.37;;;6.17;;
17235;SDS011;8734;59.272;17.780;2022-12-11T07:34:10;14.27;;;5.90;;
17235;SDS011;8734;59.272;17.780;2022-12-11T07:36:39;19.73;;;5.80;;
17235;SDS011;8734;59.272;17.780;2022-12-11T07:39:09;15.03;;;6.03;;
17235;SDS011;8734;59.272;17.780;2022-12-11T07:41:42;8.57;;;4.73;;
17235;SDS011;8734;59.272;17.780;2022-12-11T07:44:11;13.63;;;6.30;;
17235;SDS011;8734;59.272;17.780;2022-12-11T07:46:39;11.57;;;6.03;;
17235;SDS011;8734;59.272;17.780;2022-12-11T07:49:08;12.53;;;5.40;;
17235;SDS011;8734;59.272;17.780;2022-12-11T07:51:36;11.90;;;6.03;;
17235;SDS011;8734;59.272;17.780;2022-12-11T07:54:06;15.00;;;6.03;;
17235;SDS011;8734;59.272;17.780;2022-12-11T07:56:42;17.30;;;6.13;;
17235;SDS011;8734;59.272;17.780;2022-12-11T07:59:15;15.03;;;5.27;;
17235;SDS011;8734;59.272;17.780;2022-12-11T08:01:44;16.93;;;6.40;;
17235;SDS011;8734;59.272;17.780;2022-12-11T08:04:12;19.07;;;6.43;;
17235;SDS011;8734;59.272;17.780;2022-12-11T08:06:41;21.37;;;6.37;;
17235;SDS011;8734;59.272;17.780;2022-12-11T08:09:11;10.77;;;5.67;;
17235;SDS011;8734;59.272;17.780;2022-12-11T08:11:48;12.53;;;5.93;;
17235;SDS011;8734;59.272;17.780;2022-12-11T08:14:17;12.97;;;5.90;;
17235;SDS011;8734;59.272;17.780;2022-12-11T08:16:46;15.57;;;6.17;;
17235;SDS011;8734;59.272;17.780;2022-12-11T08:19:15;14.13;;;5.87;;
17235;SDS011;8734;59.272;17.780;2022-12-11T08:21:43;18.37;;;6.13;;
17235;SDS011;8734;59.272;17.780;2022-12-11T08:24:12;16.00;;;5.33;;
17235;SDS011;8734;59.272;17.780;2022-12-11T08:26:41;12.87;;;5.27;;
17235;SDS011;8734;59.272;17.780;2022-12-11T08:29:11;11.47;;;5.30;;
17235;SDS011;8734;59.272;17.780;2022-12-11T08:31:40;15.23;;;4.97;;
17235;SDS011;8734;59.272;17.780;2022-12-11T08:34:08;8.93;;;4.70;;
17235;SDS011;8734;59.272;17.780;2022-12-11T08:36:39;14.17;;;6.07;;
17235;SDS011;8734;59.272;17.780;2022-12-11T08:39:09;13.30;;;4.87;;
17235;SDS011;8734;59.272;17.780;2022-12-11T08:41:38;10.60;;;5.53;;
17235;SDS011;8734;59.272;17.780;2022-12-11T08:44:10;15.60;;;5.27;;
17235;SDS011;8734;59.272;17.780;2022-12-11T08:46:42;20.53;;;5.50;;
17235;SDS011;8734;59.272;17.780;2022-12-11T08:49:11;20.00;;;5.33;;
17235;SDS011;8734;59.272;17.780;2022-12-11T08:51:40;16.90;;;6.00;;
17235;SDS011;8734;59.272;17.780;2022-12-11T08:54:08;11.33;;;5.60;;
17235;SDS011;8734;59.272;17.780;2022-12-11T08:56:37;13.97;;;5.50;;
17235;SDS011;8734;59.272;17.780;2022-12-11T08:59:06;9.60;;;5.43;;
17235;SDS011;8734;59.272;17.780;2022-12-11T09:01:36;11.03;;;5.03;;
17235;SDS011;8734;59.272;17.780;2022-12-11T09:04:05;16.30;;;6.43;;
17235;SDS011;8734;59.272;17.780;2022-12-11T09:06:33;15.17;;;5.77;;
17235;SDS011;8734;59.272;17.780;2022-12-11T09:09:02;18.50;;;5.60;;
17235;SDS011;8734;59.272;17.780;2022-12-11T09:11:32;17.67;;;5.57;;
17235;SDS011;8734;59.272;17.780;2022-12-11T09:14:03;11.30;;;5.57;;
17235;SDS011;8734;59.272;17.780;2022-12-11T09:16:34;19.13;;;5.13;;
17235;SDS011;8734;59.272;17.780;2022-12-11T09:19:07;9.63;;;5.07;;
17235;SDS011;8734;59.272;17.780;2022-12-11T09:21:38;13.50;;;5.80;;
17235;SDS011;8734;59.272;17.780;2022-12-11T09:24:09;12.37;;;5.70;;
17235;SDS011;8734;59.272;17.780;2022-12-11T09:26:39;14.03;;;5.27;;
17235;SDS011;8734;59.272;17.780;2022-12-11T09:29:07;23.23;;;5.90;;
17235;SDS011;8734;59.272;17.780;2022-12-11T09:31:38;16.87;;;6.23;;
17235;SDS011;8734;59.272;17.780;2022-12-11T09:34:09;11.73;;;5.77;;
17235;SDS011;8734;59.272;17.780;2022-12-11T09:36:39;22.13;;;6.40;;
17235;SDS011;8734;59.272;17.780;2022-12-11T09:39:10;17.73;;;7.10;;
17235;SDS011;8734;59.272;17.780;2022-12-11T09:41:43;12.53;;;5.93;;
17235;SDS011;8734;59.272;17.780;2022-12-11T09:44:22;14.67;;;5.27;;
17235;SDS011;8734;59.272;17.780;2022-12-11T09:46:58;15.77;;;6.87;;
17235;SDS011;8734;59.272;17.780;2022-12-11T09:49:32;16.03;;;5.67;;
17235;SDS011;8734;59.272;17.780;2022-12-11T09:52:13;14.57;;;5.83;;
17235;SDS011;8734;59.272;17.780;2022-12-11T09:54:47;14.93;;;6.57;;
17235;SDS011;8734;59.272;17.780;2022-12-11T09:57:20;13.20;;;5.90;;
17235;SDS011;8734;59.272;17.780;2022-12-11T10:00:04;20.30;;;7.47;;
17235;SDS011;8734;59.272;17.780;2022-12-11T10:02:44;11.33;;;5.37;;
17235;SDS011;8734;59.272;17.780;2022-12-11T10:05:46;14.87;;;5.47;;
17235;SDS011;8734;59.272;17.780;2022-12-11T10:08:29;23.27;;;6.60;;
17235;SDS011;8734;59.272;17.780;2022-12-11T10:11:04;12.60;;;5.70;;
17235;SDS011;8734;59.272;17.780;2022-12-11T10:13:47;12.70;;;5.77;;
17235;SDS011;8734;59.272;17.780;2022-12-11T10:16:27;10.13;;;5.67;;
17235;SDS011;8734;59.272;17.780;2022-12-11T10:19:03;13.67;;;5.43;;
17235;SDS011;8734;59.272;17.780;2022-12-11T10:21:35;14.80;;;5.53;;
17235;SDS011;8734;59.272;17.780;2022-12-11T10:24:10;13.33;;;5.50;;
17235;SDS011;8734;59.272;17.780;2022-12-11T10:27:10;12.80;;;5.57;;
17235;SDS011;8734;59.272;17.780;2022-12-11T10:29:42;17.90;;;6.23;;
17235;SDS011;8734;59.272;17.780;2022-12-11T10:32:14;15.03;;;6.37;;
17235;SDS011;8734;59.272;17.780;2022-12-11T10:34:52;10.07;;;5.13;;
17235;SDS011;8734;59.272;17.780;2022-12-11T10:37:25;10.27;;;5.13;;
17235;SDS011;8734;59.272;17.780;2022-12-11T10:39:54;11.03;;;4.40;;
17235;SDS011;8734;59.272;17.780;2022-12-11T10:42:22;12.17;;;4.60;;
17235;SDS011;8734;59.272;17.780;2022-12-11T10:44:54;11.50;;;5.00;;
17235;SDS011;8734;59.272;17.780;2022-12-11T10:47:23;8.57;;;5.03;;
17235;SDS011;8734;59.272;17.780;2022-12-11T10:49:54;12.03;;;4.57;;
17235;SDS011;8734;59.272;17.780;2022-12-11T10:52:25;10.40;;;5.27;;
17235;SDS011;8734;59.272;17.780;2022-12-11T10:54:56;9.97;;;4.53;;
17235;SDS011;8734;59.272;17.780;2022-12-11T10:57:28;14.53;;;5.43;;
17235;SDS011;8734;59.272;17.780;2022-12-11T11:00:00;9.87;;;5.23;;
17235;SDS011;8734;59.272;17.780;2022-12-11T11:02:32;18.73;;;6.40;;
17235;SDS011;8734;59.272;17.780;2022-12-11T11:05:11;11.70;;;6.10;;
17235;SDS011;8734;59.272;17.780;2022-12-11T11:07:42;12.47;;;5.73;;
17235;SDS011;8734;59.272;17.780;2022-12-11T11:10:15;10.10;;;5.00;;
17235;SDS011;8734;59.272;17.780;2022-12-11T11:12:45;9.47;;;4.90;;
17235;SDS011;8734;59.272;17.780;2022-12-11T11:15:15;12.97;;;4.73;;
17235;SDS011;8734;59.272;17.780;2022-12-11T11:17:47;13.13;;;5.40;;
17235;SDS011;8734;59.272;17.780;2022-12-11T11:20:23;11.00;;;5.60;;
17235;SDS011;8734;59.272;17.780;2022-12-11T11:22:54;7.83;;;4.40;;
17235;SDS011;8734;59.272;17.780;2022-12-11T11:25:25;10.63;;;5.57;;
17235;SDS011;8734;59.272;17.780;2022-12-11T11:27:55;11.47;;;5.33;;
17235;SDS011;8734;59.272;17.780;2022-12-11T11:30:27;11.97;;;5.50;;
17235;SDS011;8734;59.272;17.780;2022-12-11T11:32:58;13.70;;;4.57;;
17235;SDS011;8734;59.272;17.780;2022-12-11T11:35:32;14.73;;;6.07;;
17235;SDS011;8734;59.272;17.780;2022-12-11T11:38:01;15.67;;;5.27;;
17235;SDS011;8734;59.272;17.780;2022-12-11T11:40:33;15.20;;;7.07;;
17235;SDS011;8734;59.272;17.780;2022-12-11T11:43:06;13.17;;;6.07;;
17235;SDS011;8734;59.272;17.780;2022-12-11T11:45:44;15.47;;;5.97;;
17235;SDS011;8734;59.272;17.780;2022-12-11T11:48:23;15.57;;;5.30;;
17235;SDS011;8734;59.272;17.780;2022-12-11T11:51:04;10.73;;;4.90;;
17235;SDS011;8734;59.272;17.780;2022-12-11T11:53:43;15.73;;;6.10;;
17235;SDS011;8734;59.272;17.780;2022-12-11T11:56:16;14.47;;;5.40;;
17235;SDS011;8734;59.272;17.780;2022-12-11T11:58:59;12.60;;;4.63;;
17235;SDS011;8734;59.272;17.780;2022-12-11T12:01:32;15.47;;;6.07;;
17235;SDS011;8734;59.272;17.780;2022-12-11T12:04:01;10.87;;;5.60;;
17235;SDS011;8734;59.272;17.780;2022-12-11T12:06:35;16.03;;;5.63;;
17235;SDS011;8734;59.272;17.780;2022-12-11T12:09:22;16.13;;;5.70;;
17235;SDS011;8734;59.272;17.780;2022-12-11T12:12:04;12.80;;;5.80;;
17235;SDS011;8734;59.272;17.780;2022-12-11T12:14:42;13.63;;;5.80;;
17235;SDS011;8734;59.272;17.780;2022-12-11T12:17:21;12.13;;;4.87;;
17235;SDS011;8734;59.272;17.780;2022-12-11T12:20:01;9.20;;;4.60;;
17235;SDS011;8734;59.272;17.780;2022-12-11T12:22:41;18.50;;;6.17;;
17235;SDS011;8734;59.272;17.780;2022-12-11T12:25:21;9.37;;;4.70;;
17235;SDS011;8734;59.272;17.780;2022-12-11T12:27:55;10.97;;;5.13;;
17235;SDS011;8734;59.272;17.780;2022-12-11T12:30:34;16.30;;;5.10;;
17235;SDS011;8734;59.272;17.780;2022-12-11T12:33:14;13.70;;;5.17;;
17235;SDS011;8734;59.272;17.780;2022-12-11T12:35:53;15.23;;;5.60;;
17235;SDS011;8734;59.272;17.780;2022-12-11T12:38:35;10.50;;;5.17;;
17235;SDS011;8734;59.272;17.780;2022-12-11T12:41:11;12.97;;;5.30;;
17235;SDS011;8734;59.272;17.780;2022-12-11T12:43:46;12.53;;;3.77;;
17235;SDS011;8734;59.272;17.780;2022-12-11T12:46:31;16.97;;;5.77;;
17235;SDS011;8734;59.272;17.780;2022-12-11T12:49:09;8.03;;;4.10;;
17235;SDS011;8734;59.272;17.780;2022-12-11T12:51:42;10.67;;;4.43;;
17235;SDS011;8734;59.272;17.780;2022-12-11T12:54:15;13.17;;;5.23;;
17235;SDS011;8734;59.272;17.780;2022-12-11T12:56:46;10.53;;;4.60;;
17235;SDS011;8734;59.272;17.780;2022-12-11T12:59:18;9.33;;;4.87;;
17235;SDS011;8734;59.272;17.780;2022-12-11T13:01:49;9.70;;;4.70;;
17235;SDS011;8734;59.272;17.780;2022-12-11T13:07:25;11.77;;;4.87;;
17235;SDS011;8734;59.272;17.780;2022-12-11T13:10:02;10.13;;;4.20;;
17235;SDS011;8734;59.272;17.780;2022-12-11T13:12:39;11.20;;;4.47;;
17235;SDS011;8734;59.272;17.780;2022-12-11T13:15:22;11.83;;;5.07;;
17235;SDS011;8734;59.272;17.780;2022-12-11T13:17:56;9.10;;;4.17;;
17235;SDS011;8734;59.272;17.780;2022-12-11T13:20:25;11.10;;;5.50;;
17235;SDS011;8734;59.272;17.780;2022-12-11T13:23:07;16.47;;;5.47;;
17235;SDS011;8734;59.272;17.780;2022-12-11T13:25:48;9.43;;;4.67;;
17235;SDS011;8734;59.272;17.780;2022-12-11T13:28:20;8.70;;;5.30;;
17235;SDS011;8734;59.272;17.780;2022-12-11T13:34:06;11.30;;;5.37;;
17235;SDS011;8734;59.272;17.780;2022-12-11T13:36:45;10.33;;;4.80;;
17235;SDS011;8734;59.272;17.780;2022-12-11T13:39:15;10.50;;;4.57;;
17235;SDS011;8734;59.272;17.780;2022-12-11T13:41:49;15.90;;;5.43;;
17235;SDS011;8734;59.272;17.780;2022-12-11T13:44:21;11.13;;;4.70;;
17235;SDS011;8734;59.272;17.780;2022-12-11T13:46:52;14.73;;;5.27;;
17235;SDS011;8734;59.272;17.780;2022-12-11T13:49:24;9.77;;;5.17;;
17235;SDS011;8734;59.272;17.780;2022-12-11T13:51:55;14.97;;;4.90;;
17235;SDS011;8734;59.272;17.780;2022-12-11T13:54:26;11.37;;;5.13;;
17235;SDS011;8734;59.272;17.780;2022-12-11T13:57:01;13.73;;;5.10;;
17235;SDS011;8734;59.272;17.780;2022-12-11T13:59:32;10.87;;;5.20;;
17235;SDS011;8734;59.272;17.780;2022-12-11T14:02:03;13.73;;;5.50;;
17235;SDS011;8734;59.272;17.780;2022-12-11T14:04:39;12.37;;;5.63;;
17235;SDS011;8734;59.272;17.780;2022-12-11T14:07:07;12.40;;;5.73;;
17235;SDS011;8734;59.272;17.780;2022-12-11T14:09:38;20.80;;;6.70;;
17235;SDS011;8734;59.272;17.780;2022-12-11T14:12:18;12.27;;;5.80;;
17235;SDS011;8734;59.272;17.780;2022-12-11T14:14:48;12.27;;;6.37;;
17235;SDS011;8734;59.272;17.780;2022-12-11T14:17:21;14.33;;;5.40;;
17235;SDS011;8734;59.272;17.780;2022-12-11T14:19:51;17.40;;;7.00;;
17235;SDS011;8734;59.272;17.780;2022-12-11T14:22:22;16.17;;;6.40;;
17235;SDS011;8734;59.272;17.780;2022-12-11T14:24:53;15.37;;;7.10;;
17235;SDS011;8734;59.272;17.780;2022-12-11T14:27:24;15.07;;;7.10;;
17235;SDS011;8734;59.272;17.780;2022-12-11T14:29:53;22.13;;;7.13;;
17235;SDS011;8734;59.272;17.780;2022-12-11T14:32:24;14.20;;;6.80;;
17235;SDS011;8734;59.272;17.780;2022-12-11T14:34:58;12.13;;;6.00;;
17235;SDS011;8734;59.272;17.780;2022-12-11T14:37:28;15.70;;;6.90;;
17235;SDS011;8734;59.272;17.780;2022-12-11T14:39:58;13.47;;;5.57;;
17235;SDS011;8734;59.272;17.780;2022-12-11T14:42:30;22.23;;;7.00;;
17235;SDS011;8734;59.272;17.780;2022-12-11T14:45:02;13.50;;;6.23;;
17235;SDS011;8734;59.272;17.780;2022-12-11T14:47:36;14.30;;;6.37;;
17235;SDS011;8734;59.272;17.780;2022-12-11T14:50:10;11.60;;;5.80;;
17235;SDS011;8734;59.272;17.780;2022-12-11T14:52:45;12.07;;;5.50;;
17235;SDS011;8734;59.272;17.780;2022-12-11T14:55:18;20.13;;;6.00;;
17235;SDS011;8734;59.272;17.780;2022-12-11T14:57:51;14.20;;;5.43;;
17235;SDS011;8734;59.272;17.780;2022-12-11T15:00:24;13.33;;;5.23;;
17235;SDS011;8734;59.272;17.780;2022-12-11T15:02:58;10.10;;;4.87;;
17235;SDS011;8734;59.272;17.780;2022-12-11T15:05:27;10.57;;;5.47;;
17235;SDS011;8734;59.272;17.780;2022-12-11T15:08:16;13.43;;;6.13;;
17235;SDS011;8734;59.272;17.780;2022-12-11T15:10:56;15.37;;;5.17;;